sensor_id;sensor_type;location;lat;lon;timestamp;P1;durP1;ratioP1;P2;durP2;ratioP2
51636;SDS011;37713;53.254;6.460;2023-04-25T00:01:31;20.90;;;4.47;;
51636;SDS011;37713;53.254;6.460;2023-04-25T00:04:01;21.00;;;4.53;;
51636;SDS011;37713;53.254;6.460;2023-04-25T00:06:27;20.27;;;4.00;;
51636;SDS011;37713;53.254;6.460;2023-04-25T00:08:54;23.77;;;4.50;;
51636;SDS011;37713;53.254;6.460;2023-04-25T00:11:21;19.98;;;3.33;;
51636;SDS011;37713;53.254;6.460;2023-04-25T00:13:48;20.00;;;4.13;;
51636;SDS011;37713;53.254;6.460;2023-04-25T00:16:14;23.00;;;4.60;;
51636;SDS011;37713;53.254;6.460;2023-04-25T00:18:41;23.42;;;4.07;;
51636;SDS011;37713;53.254;6.460;2023-04-25T00:21:07;17.13;;;3.10;;
51636;SDS011;37713;53.254;6.460;2023-04-25T00:23:33;23.13;;;4.00;;
51636;SDS011;37713;53.254;6.460;2023-04-25T00:26:01;22.63;;;3.25;;
51636;SDS011;37713;53.254;6.460;2023-04-25T00:28:27;21.38;;;3.53;;
51636;SDS011;37713;53.254;6.460;2023-04-25T00:30:53;21.48;;;3.00;;
51636;SDS011;37713;53.254;6.460;2023-04-25T00:33:18;17.13;;;3.33;;
51636;SDS011;37713;53.254;6.460;2023-04-25T00:35:44;20.02;;;3.45;;
51636;SDS011;37713;53.254;6.460;2023-04-25T00:38:10;16.80;;;2.95;;
51636;SDS011;37713;53.254;6.460;2023-04-25T00:40:36;18.98;;;3.33;;
51636;SDS011;37713;53.254;6.460;2023-04-25T00:43:02;18.67;;;3.00;;
51636;SDS011;37713;53.254;6.460;2023-04-25T00:45:28;16.83;;;3.05;;
51636;SDS011;37713;53.254;6.460;2023-04-25T00:47:55;20.80;;;3.83;;
51636;SDS011;37713;53.254;6.460;2023-04-25T00:50:21;17.45;;;3.28;;
51636;SDS011;37713;53.254;6.460;2023-04-25T00:52:47;13.63;;;2.67;;
51636;SDS011;37713;53.254;6.460;2023-04-25T00:55:13;13.57;;;3.20;;
51636;SDS011;37713;53.254;6.460;2023-04-25T00:57:40;15.75;;;2.65;;
51636;SDS011;37713;53.254;6.460;2023-04-25T01:00:09;13.73;;;2.53;;
51636;SDS011;37713;53.254;6.460;2023-04-25T01:02:36;15.73;;;2.53;;
51636;SDS011;37713;53.254;6.460;2023-04-25T01:05:02;15.52;;;2.75;;
51636;SDS011;37713;53.254;6.460;2023-04-25T01:07:28;16.85;;;2.40;;
51636;SDS011;37713;53.254;6.460;2023-04-25T01:09:55;13.88;;;2.40;;
51636;SDS011;37713;53.254;6.460;2023-04-25T01:12:21;17.65;;;2.50;;
51636;SDS011;37713;53.254;6.460;2023-04-25T01:14:48;13.25;;;2.55;;
51636;SDS011;37713;53.254;6.460;2023-04-25T01:17:14;21.55;;;2.60;;
51636;SDS011;37713;53.254;6.460;2023-04-25T01:19:41;18.48;;;2.50;;
51636;SDS011;37713;53.254;6.460;2023-04-25T01:22:07;12.55;;;2.97;;
51636;SDS011;37713;53.254;6.460;2023-04-25T01:24:35;17.48;;;2.63;;
51636;SDS011;37713;53.254;6.460;2023-04-25T01:27:01;24.30;;;2.90;;
51636;SDS011;37713;53.254;6.460;2023-04-25T01:29:28;13.30;;;2.40;;
51636;SDS011;37713;53.254;6.460;2023-04-25T01:31:54;21.77;;;2.95;;
51636;SDS011;37713;53.254;6.460;2023-04-25T01:34:20;21.50;;;3.25;;
51636;SDS011;37713;53.254;6.460;2023-04-25T01:36:47;18.88;;;3.22;;
51636;SDS011;37713;53.254;6.460;2023-04-25T01:39:15;18.48;;;2.92;;
51636;SDS011;37713;53.254;6.460;2023-04-25T01:41:41;23.17;;;3.28;;
51636;SDS011;37713;53.254;6.460;2023-04-25T01:44:08;16.15;;;2.95;;
51636;SDS011;37713;53.254;6.460;2023-04-25T01:46:34;22.83;;;3.15;;
51636;SDS011;37713;53.254;6.460;2023-04-25T01:49:00;13.70;;;2.60;;
51636;SDS011;37713;53.254;6.460;2023-04-25T01:51:26;18.27;;;2.80;;
51636;SDS011;37713;53.254;6.460;2023-04-25T01:53:52;14.43;;;3.10;;
51636;SDS011;37713;53.254;6.460;2023-04-25T01:56:19;18.25;;;3.22;;
51636;SDS011;37713;53.254;6.460;2023-04-25T01:58:45;16.67;;;3.22;;
51636;SDS011;37713;53.254;6.460;2023-04-25T02:01:11;16.27;;;2.92;;
51636;SDS011;37713;53.254;6.460;2023-04-25T02:03:37;17.98;;;2.92;;
51636;SDS011;37713;53.254;6.460;2023-04-25T02:06:03;20.52;;;2.97;;
51636;SDS011;37713;53.254;6.460;2023-04-25T02:08:29;15.60;;;2.92;;
51636;SDS011;37713;53.254;6.460;2023-04-25T02:10:55;14.38;;;2.97;;
51636;SDS011;37713;53.254;6.460;2023-04-25T02:13:21;14.57;;;2.60;;
51636;SDS011;37713;53.254;6.460;2023-04-25T02:15:46;16.83;;;2.35;;
51636;SDS011;37713;53.254;6.460;2023-04-25T02:18:12;15.88;;;2.80;;
51636;SDS011;37713;53.254;6.460;2023-04-25T02:20:41;17.25;;;2.78;;
51636;SDS011;37713;53.254;6.460;2023-04-25T02:23:07;17.95;;;2.95;;
51636;SDS011;37713;53.254;6.460;2023-04-25T02:25:33;17.90;;;2.53;;
51636;SDS011;37713;53.254;6.460;2023-04-25T02:27:59;17.23;;;3.20;;
51636;SDS011;37713;53.254;6.460;2023-04-25T02:30:25;16.52;;;2.80;;
51636;SDS011;37713;53.254;6.460;2023-04-25T02:32:51;12.93;;;2.28;;
51636;SDS011;37713;53.254;6.460;2023-04-25T02:35:16;20.27;;;3.10;;
51636;SDS011;37713;53.254;6.460;2023-04-25T02:37:42;13.88;;;2.40;;
51636;SDS011;37713;53.254;6.460;2023-04-25T02:40:08;13.45;;;2.75;;
51636;SDS011;37713;53.254;6.460;2023-04-25T02:42:34;12.77;;;2.60;;
51636;SDS011;37713;53.254;6.460;2023-04-25T02:45:00;14.45;;;2.70;;
51636;SDS011;37713;53.254;6.460;2023-04-25T02:47:26;15.95;;;3.03;;
51636;SDS011;37713;53.254;6.460;2023-04-25T02:49:52;16.10;;;2.85;;
51636;SDS011;37713;53.254;6.460;2023-04-25T02:52:18;14.85;;;2.50;;
51636;SDS011;37713;53.254;6.460;2023-04-25T02:54:44;15.60;;;2.65;;
51636;SDS011;37713;53.254;6.460;2023-04-25T02:57:09;12.82;;;2.08;;
51636;SDS011;37713;53.254;6.460;2023-04-25T02:59:35;14.40;;;2.47;;
51636;SDS011;37713;53.254;6.460;2023-04-25T03:02:02;17.15;;;2.45;;
51636;SDS011;37713;53.254;6.460;2023-04-25T03:04:27;15.00;;;2.13;;
51636;SDS011;37713;53.254;6.460;2023-04-25T03:06:53;14.80;;;2.00;;
51636;SDS011;37713;53.254;6.460;2023-04-25T03:09:20;14.60;;;2.00;;
51636;SDS011;37713;53.254;6.460;2023-04-25T03:11:46;10.77;;;2.05;;
51636;SDS011;37713;53.254;6.460;2023-04-25T03:14:12;11.35;;;2.25;;
51636;SDS011;37713;53.254;6.460;2023-04-25T03:16:38;16.98;;;2.72;;
51636;SDS011;37713;53.254;6.460;2023-04-25T03:19:04;13.60;;;2.42;;
51636;SDS011;37713;53.254;6.460;2023-04-25T03:21:33;15.35;;;2.47;;
51636;SDS011;37713;53.254;6.460;2023-04-25T03:24:01;16.33;;;2.75;;
51636;SDS011;37713;53.254;6.460;2023-04-25T03:26:28;14.43;;;2.35;;
51636;SDS011;37713;53.254;6.460;2023-04-25T03:28:57;11.90;;;2.03;;
51636;SDS011;37713;53.254;6.460;2023-04-25T03:31:23;14.30;;;2.15;;
51636;SDS011;37713;53.254;6.460;2023-04-25T03:33:48;8.50;;;2.05;;
51636;SDS011;37713;53.254;6.460;2023-04-25T03:36:14;13.85;;;2.40;;
51636;SDS011;37713;53.254;6.460;2023-04-25T03:38:40;9.05;;;1.90;;
51636;SDS011;37713;53.254;6.460;2023-04-25T03:41:06;11.25;;;2.45;;
51636;SDS011;37713;53.254;6.460;2023-04-25T03:43:33;15.48;;;1.88;;
51636;SDS011;37713;53.254;6.460;2023-04-25T03:45:59;11.45;;;2.28;;
51636;SDS011;37713;53.254;6.460;2023-04-25T03:48:25;14.00;;;2.20;;
51636;SDS011;37713;53.254;6.460;2023-04-25T03:50:52;12.70;;;2.03;;
51636;SDS011;37713;53.254;6.460;2023-04-25T03:53:18;15.73;;;2.13;;
51636;SDS011;37713;53.254;6.460;2023-04-25T03:55:44;12.88;;;1.98;;
51636;SDS011;37713;53.254;6.460;2023-04-25T03:58:10;19.25;;;2.42;;
51636;SDS011;37713;53.254;6.460;2023-04-25T04:00:36;12.00;;;2.00;;
51636;SDS011;37713;53.254;6.460;2023-04-25T04:03:02;13.20;;;2.40;;
51636;SDS011;37713;53.254;6.460;2023-04-25T04:05:28;20.83;;;2.75;;
51636;SDS011;37713;53.254;6.460;2023-04-25T04:07:54;17.10;;;2.88;;
51636;SDS011;37713;53.254;6.460;2023-04-25T04:10:20;15.55;;;3.15;;
51636;SDS011;37713;53.254;6.460;2023-04-25T04:12:46;13.52;;;2.40;;
51636;SDS011;37713;53.254;6.460;2023-04-25T04:15:12;16.25;;;2.20;;
51636;SDS011;37713;53.254;6.460;2023-04-25T04:17:38;13.43;;;2.30;;
51636;SDS011;37713;53.254;6.460;2023-04-25T04:20:04;12.07;;;2.25;;
51636;SDS011;37713;53.254;6.460;2023-04-25T04:22:31;16.63;;;2.75;;
51636;SDS011;37713;53.254;6.460;2023-04-25T04:24:57;13.95;;;2.20;;
51636;SDS011;37713;53.254;6.460;2023-04-25T04:27:23;16.17;;;2.45;;
51636;SDS011;37713;53.254;6.460;2023-04-25T04:29:49;11.02;;;1.65;;
51636;SDS011;37713;53.254;6.460;2023-04-25T04:32:16;14.18;;;2.17;;
51636;SDS011;37713;53.254;6.460;2023-04-25T04:34:42;11.18;;;1.95;;
51636;SDS011;37713;53.254;6.460;2023-04-25T04:37:08;11.02;;;1.95;;
51636;SDS011;37713;53.254;6.460;2023-04-25T04:39:35;12.98;;;2.25;;
51636;SDS011;37713;53.254;6.460;2023-04-25T04:42:02;15.25;;;2.20;;
51636;SDS011;37713;53.254;6.460;2023-04-25T04:44:29;18.95;;;2.65;;
51636;SDS011;37713;53.254;6.460;2023-04-25T04:46:58;10.75;;;2.45;;
51636;SDS011;37713;53.254;6.460;2023-04-25T04:49:24;11.30;;;1.88;;
51636;SDS011;37713;53.254;6.460;2023-04-25T04:51:50;13.93;;;2.03;;
51636;SDS011;37713;53.254;6.460;2023-04-25T04:54:16;10.43;;;1.70;;
51636;SDS011;37713;53.254;6.460;2023-04-25T04:56:42;11.20;;;2.28;;
51636;SDS011;37713;53.254;6.460;2023-04-25T04:59:07;9.52;;;1.83;;
51636;SDS011;37713;53.254;6.460;2023-04-25T05:01:33;9.07;;;1.50;;
51636;SDS011;37713;53.254;6.460;2023-04-25T05:04:02;9.85;;;1.60;;
51636;SDS011;37713;53.254;6.460;2023-04-25T05:06:28;6.85;;;1.40;;
51636;SDS011;37713;53.254;6.460;2023-04-25T05:08:55;8.23;;;1.77;;
51636;SDS011;37713;53.254;6.460;2023-04-25T05:11:21;7.88;;;1.50;;
51636;SDS011;37713;53.254;6.460;2023-04-25T05:13:49;8.70;;;1.45;;
51636;SDS011;37713;53.254;6.460;2023-04-25T05:16:16;5.50;;;1.52;;
51636;SDS011;37713;53.254;6.460;2023-04-25T05:18:41;5.78;;;1.63;;
51636;SDS011;37713;53.254;6.460;2023-04-25T05:21:07;10.63;;;1.73;;
51636;SDS011;37713;53.254;6.460;2023-04-25T05:23:33;10.32;;;2.10;;
51636;SDS011;37713;53.254;6.460;2023-04-25T05:25:59;7.50;;;1.48;;
51636;SDS011;37713;53.254;6.460;2023-04-25T05:28:25;6.85;;;1.30;;
51636;SDS011;37713;53.254;6.460;2023-04-25T05:30:51;5.15;;;1.42;;
51636;SDS011;37713;53.254;6.460;2023-04-25T05:33:17;11.07;;;1.40;;
51636;SDS011;37713;53.254;6.460;2023-04-25T05:35:43;6.15;;;1.20;;
51636;SDS011;37713;53.254;6.460;2023-04-25T05:38:09;10.52;;;1.42;;
51636;SDS011;37713;53.254;6.460;2023-04-25T05:40:35;10.52;;;1.60;;
51636;SDS011;37713;53.254;6.460;2023-04-25T05:43:01;8.18;;;1.65;;
51636;SDS011;37713;53.254;6.460;2023-04-25T05:45:27;11.68;;;2.10;;
51636;SDS011;37713;53.254;6.460;2023-04-25T05:47:53;9.23;;;1.40;;
51636;SDS011;37713;53.254;6.460;2023-04-25T05:50:19;11.25;;;1.80;;
51636;SDS011;37713;53.254;6.460;2023-04-25T05:52:44;6.63;;;1.65;;
51636;SDS011;37713;53.254;6.460;2023-04-25T05:55:10;14.50;;;2.25;;
51636;SDS011;37713;53.254;6.460;2023-04-25T05:57:36;11.60;;;1.85;;
51636;SDS011;37713;53.254;6.460;2023-04-25T06:00:01;12.80;;;2.00;;
51636;SDS011;37713;53.254;6.460;2023-04-25T06:02:28;7.90;;;1.75;;
51636;SDS011;37713;53.254;6.460;2023-04-25T06:04:54;11.07;;;1.83;;
51636;SDS011;37713;53.254;6.460;2023-04-25T06:07:20;10.60;;;1.92;;
51636;SDS011;37713;53.254;6.460;2023-04-25T06:09:46;9.88;;;1.45;;
51636;SDS011;37713;53.254;6.460;2023-04-25T06:12:12;8.15;;;1.50;;
51636;SDS011;37713;53.254;6.460;2023-04-25T06:14:37;7.90;;;1.42;;
51636;SDS011;37713;53.254;6.460;2023-04-25T06:17:03;9.02;;;1.35;;
51636;SDS011;37713;53.254;6.460;2023-04-25T06:19:33;12.02;;;1.98;;
51636;SDS011;37713;53.254;6.460;2023-04-25T06:22:00;11.43;;;1.55;;
51636;SDS011;37713;53.254;6.460;2023-04-25T06:24:27;11.60;;;1.83;;
51636;SDS011;37713;53.254;6.460;2023-04-25T06:26:53;10.85;;;1.75;;
51636;SDS011;37713;53.254;6.460;2023-04-25T06:29:20;12.85;;;1.90;;
51636;SDS011;37713;53.254;6.460;2023-04-25T06:31:46;12.30;;;1.80;;
51636;SDS011;37713;53.254;6.460;2023-04-25T06:34:11;5.43;;;1.40;;
51636;SDS011;37713;53.254;6.460;2023-04-25T06:36:37;11.45;;;2.13;;
51636;SDS011;37713;53.254;6.460;2023-04-25T06:39:03;10.52;;;1.63;;
51636;SDS011;37713;53.254;6.460;2023-04-25T06:41:29;13.38;;;2.00;;
51636;SDS011;37713;53.254;6.460;2023-04-25T06:43:54;8.82;;;1.70;;
51636;SDS011;37713;53.254;6.460;2023-04-25T06:46:20;10.82;;;1.83;;
51636;SDS011;37713;53.254;6.460;2023-04-25T06:48:46;5.32;;;1.30;;
51636;SDS011;37713;53.254;6.460;2023-04-25T06:51:11;7.68;;;1.33;;
51636;SDS011;37713;53.254;6.460;2023-04-25T06:53:38;9.82;;;2.42;;
51636;SDS011;37713;53.254;6.460;2023-04-25T06:56:05;10.00;;;1.42;;
51636;SDS011;37713;53.254;6.460;2023-04-25T06:58:31;8.45;;;1.50;;
51636;SDS011;37713;53.254;6.460;2023-04-25T07:00:57;9.07;;;1.73;;
51636;SDS011;37713;53.254;6.460;2023-04-25T07:03:23;6.43;;;1.40;;
51636;SDS011;37713;53.254;6.460;2023-04-25T07:05:49;14.07;;;2.47;;
51636;SDS011;37713;53.254;6.460;2023-04-25T07:08:15;9.05;;;1.45;;
51636;SDS011;37713;53.254;6.460;2023-04-25T07:10:41;7.93;;;1.63;;
51636;SDS011;37713;53.254;6.460;2023-04-25T07:13:07;7.57;;;1.63;;
51636;SDS011;37713;53.254;6.460;2023-04-25T07:15:33;8.40;;;1.25;;
51636;SDS011;37713;53.254;6.460;2023-04-25T07:17:59;12.05;;;1.77;;
51636;SDS011;37713;53.254;6.460;2023-04-25T07:20:25;7.43;;;1.13;;
51636;SDS011;37713;53.254;6.460;2023-04-25T07:22:52;5.90;;;1.15;;
51636;SDS011;37713;53.254;6.460;2023-04-25T07:25:19;12.63;;;1.70;;
51636;SDS011;37713;53.254;6.460;2023-04-25T07:27:45;11.82;;;1.48;;
51636;SDS011;37713;53.254;6.460;2023-04-25T07:30:11;15.52;;;2.05;;
51636;SDS011;37713;53.254;6.460;2023-04-25T07:32:37;10.07;;;1.65;;
51636;SDS011;37713;53.254;6.460;2023-04-25T07:35:04;8.00;;;1.80;;
51636;SDS011;37713;53.254;6.460;2023-04-25T07:37:32;6.88;;;1.17;;
51636;SDS011;37713;53.254;6.460;2023-04-25T07:39:58;6.50;;;1.20;;
51636;SDS011;37713;53.254;6.460;2023-04-25T07:42:24;5.93;;;1.10;;
51636;SDS011;37713;53.254;6.460;2023-04-25T07:44:49;6.00;;;1.08;;
51636;SDS011;37713;53.254;6.460;2023-04-25T07:47:16;6.90;;;1.20;;
51636;SDS011;37713;53.254;6.460;2023-04-25T07:49:44;8.10;;;1.10;;
51636;SDS011;37713;53.254;6.460;2023-04-25T07:52:11;9.90;;;1.10;;
51636;SDS011;37713;53.254;6.460;2023-04-25T07:54:36;6.07;;;0.90;;
51636;SDS011;37713;53.254;6.460;2023-04-25T07:57:02;5.95;;;0.93;;
51636;SDS011;37713;53.254;6.460;2023-04-25T07:59:28;6.32;;;0.82;;
51636;SDS011;37713;53.254;6.460;2023-04-25T08:01:54;6.53;;;1.10;;
51636;SDS011;37713;53.254;6.460;2023-04-25T08:04:22;5.13;;;0.95;;
51636;SDS011;37713;53.254;6.460;2023-04-25T08:06:48;4.05;;;0.95;;
51636;SDS011;37713;53.254;6.460;2023-04-25T08:09:15;4.28;;;0.85;;
51636;SDS011;37713;53.254;6.460;2023-04-25T08:11:41;6.70;;;1.38;;
51636;SDS011;37713;53.254;6.460;2023-04-25T08:14:07;6.20;;;0.88;;
51636;SDS011;37713;53.254;6.460;2023-04-25T08:16:33;4.13;;;0.90;;
51636;SDS011;37713;53.254;6.460;2023-04-25T08:19:00;6.72;;;1.30;;
51636;SDS011;37713;53.254;6.460;2023-04-25T08:21:26;4.75;;;0.93;;
51636;SDS011;37713;53.254;6.460;2023-04-25T08:23:54;6.57;;;0.73;;
51636;SDS011;37713;53.254;6.460;2023-04-25T08:26:20;5.88;;;1.10;;
51636;SDS011;37713;53.254;6.460;2023-04-25T08:28:46;4.93;;;0.95;;
51636;SDS011;37713;53.254;6.460;2023-04-25T08:31:12;7.40;;;1.42;;
51636;SDS011;37713;53.254;6.460;2023-04-25T08:33:38;4.22;;;1.00;;
51636;SDS011;37713;53.254;6.460;2023-04-25T08:36:03;6.05;;;1.20;;
51636;SDS011;37713;53.254;6.460;2023-04-25T08:38:29;6.25;;;1.10;;
51636;SDS011;37713;53.254;6.460;2023-04-25T08:40:56;6.65;;;1.00;;
51636;SDS011;37713;53.254;6.460;2023-04-25T08:43:24;8.65;;;1.52;;
51636;SDS011;37713;53.254;6.460;2023-04-25T08:45:50;7.68;;;1.17;;
51636;SDS011;37713;53.254;6.460;2023-04-25T08:48:19;10.70;;;1.60;;
51636;SDS011;37713;53.254;6.460;2023-04-25T08:50:51;6.20;;;1.00;;
51636;SDS011;37713;53.254;6.460;2023-04-25T08:53:52;6.32;;;1.40;;
51636;SDS011;37713;53.254;6.460;2023-04-25T08:56:12;6.97;;;1.40;;
51636;SDS011;37713;53.254;6.460;2023-04-25T08:58:43;7.50;;;1.00;;
51636;SDS011;37713;53.254;6.460;2023-04-25T09:01:11;6.15;;;1.27;;
51636;SDS011;37713;53.254;6.460;2023-04-25T09:03:36;11.70;;;1.70;;
51636;SDS011;37713;53.254;6.460;2023-04-25T09:06:03;8.43;;;1.33;;
51636;SDS011;37713;53.254;6.460;2023-04-25T09:08:29;9.85;;;1.50;;
51636;SDS011;37713;53.254;6.460;2023-04-25T09:10:55;9.25;;;1.58;;
51636;SDS011;37713;53.254;6.460;2023-04-25T09:13:25;10.43;;;1.85;;
51636;SDS011;37713;53.254;6.460;2023-04-25T09:15:52;8.25;;;1.40;;
51636;SDS011;37713;53.254;6.460;2023-04-25T09:20:54;10.85;;;1.92;;
51636;SDS011;37713;53.254;6.460;2023-04-25T09:23:22;10.77;;;1.83;;
51636;SDS011;37713;53.254;6.460;2023-04-25T09:25:49;10.98;;;2.20;;
51636;SDS011;37713;53.254;6.460;2023-04-25T09:28:25;11.75;;;1.77;;
51636;SDS011;37713;53.254;6.460;2023-04-25T09:30:55;9.18;;;1.67;;
51636;SDS011;37713;53.254;6.460;2023-04-25T09:33:29;8.77;;;1.25;;
51636;SDS011;37713;53.254;6.460;2023-04-25T09:38:30;5.90;;;1.30;;
51636;SDS011;37713;53.254;6.460;2023-04-25T09:40:58;8.95;;;1.25;;
51636;SDS011;37713;53.254;6.460;2023-04-25T09:43:25;8.93;;;1.90;;
51636;SDS011;37713;53.254;6.460;2023-04-25T09:45:53;11.45;;;1.70;;
51636;SDS011;37713;53.254;6.460;2023-04-25T09:48:22;10.30;;;1.95;;
51636;SDS011;37713;53.254;6.460;2023-04-25T09:53:34;10.32;;;1.67;;
51636;SDS011;37713;53.254;6.460;2023-04-25T09:56:03;11.43;;;1.77;;
51636;SDS011;37713;53.254;6.460;2023-04-25T09:58:30;12.63;;;2.22;;
51636;SDS011;37713;53.254;6.460;2023-04-25T10:01:00;10.55;;;1.70;;
51636;SDS011;37713;53.254;6.460;2023-04-25T10:03:29;10.55;;;1.63;;
51636;SDS011;37713;53.254;6.460;2023-04-25T10:05:59;6.50;;;1.30;;
51636;SDS011;37713;53.254;6.460;2023-04-25T10:08:36;10.82;;;1.60;;
51636;SDS011;37713;53.254;6.460;2023-04-25T10:11:04;12.13;;;1.63;;
51636;SDS011;37713;53.254;6.460;2023-04-25T10:13:31;8.90;;;1.65;;
51636;SDS011;37713;53.254;6.460;2023-04-25T10:15:58;10.10;;;1.90;;
51636;SDS011;37713;53.254;6.460;2023-04-25T10:18:29;8.98;;;1.60;;
51636;SDS011;37713;53.254;6.460;2023-04-25T10:23:22;10.95;;;2.10;;
51636;SDS011;37713;53.254;6.460;2023-04-25T10:25:52;12.43;;;1.80;;
51636;SDS011;37713;53.254;6.460;2023-04-25T10:28:19;9.63;;;1.58;;
51636;SDS011;37713;53.254;6.460;2023-04-25T10:36:12;10.20;;;1.52;;
51636;SDS011;37713;53.254;6.460;2023-04-25T10:38:41;7.70;;;1.38;;
51636;SDS011;37713;53.254;6.460;2023-04-25T10:41:08;6.28;;;1.38;;
51636;SDS011;37713;53.254;6.460;2023-04-25T10:43:36;7.82;;;1.73;;
51636;SDS011;37713;53.254;6.460;2023-04-25T10:46:13;8.88;;;1.50;;
51636;SDS011;37713;53.254;6.460;2023-04-25T10:48:47;12.95;;;1.95;;
51636;SDS011;37713;53.254;6.460;2023-04-25T10:51:23;12.52;;;2.17;;
51636;SDS011;37713;53.254;6.460;2023-04-25T10:56:30;7.05;;;1.30;;
51636;SDS011;37713;53.254;6.460;2023-04-25T10:59:13;8.63;;;1.70;;
51636;SDS011;37713;53.254;6.460;2023-04-25T11:01:44;4.75;;;1.27;;
51636;SDS011;37713;53.254;6.460;2023-04-25T11:04:28;8.63;;;1.30;;
51636;SDS011;37713;53.254;6.460;2023-04-25T11:09:37;8.95;;;1.42;;
51636;SDS011;37713;53.254;6.460;2023-04-25T11:12:06;8.00;;;1.70;;
51636;SDS011;37713;53.254;6.460;2023-04-25T11:14:33;6.82;;;1.50;;
51636;SDS011;37713;53.254;6.460;2023-04-25T11:16:59;7.40;;;1.42;;
51636;SDS011;37713;53.254;6.460;2023-04-25T11:19:28;10.40;;;1.40;;
51636;SDS011;37713;53.254;6.460;2023-04-25T11:21:58;13.40;;;1.83;;
51636;SDS011;37713;53.254;6.460;2023-04-25T11:24:29;9.50;;;1.38;;
51636;SDS011;37713;53.254;6.460;2023-04-25T11:26:57;6.93;;;1.40;;
51636;SDS011;37713;53.254;6.460;2023-04-25T11:29:28;7.20;;;1.25;;
51636;SDS011;37713;53.254;6.460;2023-04-25T11:31:55;9.63;;;1.58;;
51636;SDS011;37713;53.254;6.460;2023-04-25T11:34:25;10.65;;;1.88;;
51636;SDS011;37713;53.254;6.460;2023-04-25T11:36:51;9.25;;;1.83;;
51636;SDS011;37713;53.254;6.460;2023-04-25T11:39:18;7.28;;;1.50;;
51636;SDS011;37713;53.254;6.460;2023-04-25T11:41:45;8.55;;;1.60;;
51636;SDS011;37713;53.254;6.460;2023-04-25T11:44:11;12.02;;;1.90;;
51636;SDS011;37713;53.254;6.460;2023-04-25T11:46:40;9.48;;;1.40;;
51636;SDS011;37713;53.254;6.460;2023-04-25T11:49:07;8.95;;;1.55;;
51636;SDS011;37713;53.254;6.460;2023-04-25T11:51:42;8.20;;;1.73;;
51636;SDS011;37713;53.254;6.460;2023-04-25T11:54:09;6.68;;;1.20;;
51636;SDS011;37713;53.254;6.460;2023-04-25T11:56:35;5.80;;;1.42;;
51636;SDS011;37713;53.254;6.460;2023-04-25T11:59:04;13.65;;;1.67;;
51636;SDS011;37713;53.254;6.460;2023-04-25T12:03:57;11.93;;;2.00;;
51636;SDS011;37713;53.254;6.460;2023-04-25T12:06:36;7.63;;;1.38;;
51636;SDS011;37713;53.254;6.460;2023-04-25T12:09:06;7.72;;;1.27;;
51636;SDS011;37713;53.254;6.460;2023-04-25T12:11:40;8.77;;;1.30;;
51636;SDS011;37713;53.254;6.460;2023-04-25T12:14:11;8.50;;;1.48;;
51636;SDS011;37713;53.254;6.460;2023-04-25T12:16:44;8.52;;;1.33;;
51636;SDS011;37713;53.254;6.460;2023-04-25T12:19:14;10.48;;;1.58;;
51636;SDS011;37713;53.254;6.460;2023-04-25T12:21:43;12.02;;;1.70;;
51636;SDS011;37713;53.254;6.460;2023-04-25T12:24:10;8.77;;;1.23;;
51636;SDS011;37713;53.254;6.460;2023-04-25T12:26:46;7.63;;;1.33;;
51636;SDS011;37713;53.254;6.460;2023-04-25T12:29:19;5.95;;;1.42;;
51636;SDS011;37713;53.254;6.460;2023-04-25T12:31:50;7.03;;;1.55;;
51636;SDS011;37713;53.254;6.460;2023-04-25T12:34:20;7.50;;;1.33;;
51636;SDS011;37713;53.254;6.460;2023-04-25T12:36:46;8.38;;;1.30;;
51636;SDS011;37713;53.254;6.460;2023-04-25T12:41:42;7.18;;;1.10;;
51636;SDS011;37713;53.254;6.460;2023-04-25T12:44:09;10.13;;;1.63;;
51636;SDS011;37713;53.254;6.460;2023-04-25T12:46:36;11.43;;;1.50;;
51636;SDS011;37713;53.254;6.460;2023-04-25T12:49:02;5.00;;;1.27;;
51636;SDS011;37713;53.254;6.460;2023-04-25T12:51:29;9.38;;;1.38;;
51636;SDS011;37713;53.254;6.460;2023-04-25T12:53:54;9.77;;;1.63;;
51636;SDS011;37713;53.254;6.460;2023-04-25T12:56:20;10.13;;;1.52;;
51636;SDS011;37713;53.254;6.460;2023-04-25T12:58:46;7.93;;;1.35;;
51636;SDS011;37713;53.254;6.460;2023-04-25T13:01:13;8.70;;;1.42;;
51636;SDS011;37713;53.254;6.460;2023-04-25T13:03:39;9.25;;;1.77;;
51636;SDS011;37713;53.254;6.460;2023-04-25T13:06:06;9.07;;;1.58;;
51636;SDS011;37713;53.254;6.460;2023-04-25T13:08:32;7.88;;;1.70;;
51636;SDS011;37713;53.254;6.460;2023-04-25T13:10:58;8.95;;;1.60;;
51636;SDS011;37713;53.254;6.460;2023-04-25T13:13:23;9.60;;;1.60;;
51636;SDS011;37713;53.254;6.460;2023-04-25T13:15:49;8.35;;;1.83;;
51636;SDS011;37713;53.254;6.460;2023-04-25T13:18:15;8.18;;;1.63;;
51636;SDS011;37713;53.254;6.460;2023-04-25T13:20:41;12.93;;;2.17;;
51636;SDS011;37713;53.254;6.460;2023-04-25T13:23:07;12.95;;;1.85;;
51636;SDS011;37713;53.254;6.460;2023-04-25T13:25:32;13.38;;;2.17;;
51636;SDS011;37713;53.254;6.460;2023-04-25T13:27:58;8.07;;;1.60;;
51636;SDS011;37713;53.254;6.460;2023-04-25T13:30:24;11.60;;;1.70;;
51636;SDS011;37713;53.254;6.460;2023-04-25T13:32:50;10.57;;;1.75;;
51636;SDS011;37713;53.254;6.460;2023-04-25T13:35:16;7.72;;;1.60;;
51636;SDS011;37713;53.254;6.460;2023-04-25T13:37:42;5.78;;;1.23;;
51636;SDS011;37713;53.254;6.460;2023-04-25T13:40:08;5.53;;;1.15;;
51636;SDS011;37713;53.254;6.460;2023-04-25T13:42:36;7.03;;;1.20;;
51636;SDS011;37713;53.254;6.460;2023-04-25T13:45:03;6.20;;;0.93;;
51636;SDS011;37713;53.254;6.460;2023-04-25T13:47:29;7.07;;;1.10;;
51636;SDS011;37713;53.254;6.460;2023-04-25T13:49:55;7.97;;;1.40;;
51636;SDS011;37713;53.254;6.460;2023-04-25T13:52:21;6.53;;;1.55;;
51636;SDS011;37713;53.254;6.460;2023-04-25T13:54:47;10.55;;;1.50;;
51636;SDS011;37713;53.254;6.460;2023-04-25T13:57:12;6.00;;;1.50;;
51636;SDS011;37713;53.254;6.460;2023-04-25T13:59:38;11.52;;;1.73;;
51636;SDS011;37713;53.254;6.460;2023-04-25T14:02:06;9.32;;;1.52;;
51636;SDS011;37713;53.254;6.460;2023-04-25T14:04:32;13.70;;;1.80;;
51636;SDS011;37713;53.254;6.460;2023-04-25T14:06:58;13.07;;;1.98;;
51636;SDS011;37713;53.254;6.460;2023-04-25T14:09:24;8.75;;;1.63;;
51636;SDS011;37713;53.254;6.460;2023-04-25T14:11:52;11.90;;;1.98;;
51636;SDS011;37713;53.254;6.460;2023-04-25T14:14:18;7.65;;;1.55;;
51636;SDS011;37713;53.254;6.460;2023-04-25T14:16:45;8.85;;;1.25;;
51636;SDS011;37713;53.254;6.460;2023-04-25T14:19:13;5.35;;;0.90;;
51636;SDS011;37713;53.254;6.460;2023-04-25T14:21:39;9.88;;;1.73;;
51636;SDS011;37713;53.254;6.460;2023-04-25T14:24:05;9.13;;;1.55;;
51636;SDS011;37713;53.254;6.460;2023-04-25T14:26:33;6.80;;;1.00;;
51636;SDS011;37713;53.254;6.460;2023-04-25T14:28:59;7.82;;;1.35;;
51636;SDS011;37713;53.254;6.460;2023-04-25T14:31:24;9.20;;;1.40;;
51636;SDS011;37713;53.254;6.460;2023-04-25T14:33:50;10.45;;;1.80;;
51636;SDS011;37713;53.254;6.460;2023-04-25T14:36:16;10.18;;;1.65;;
51636;SDS011;37713;53.254;6.460;2023-04-25T14:38:42;9.93;;;1.80;;
51636;SDS011;37713;53.254;6.460;2023-04-25T14:41:08;8.68;;;1.42;;
51636;SDS011;37713;53.254;6.460;2023-04-25T14:43:34;9.63;;;1.77;;
51636;SDS011;37713;53.254;6.460;2023-04-25T14:46:01;8.35;;;1.63;;
51636;SDS011;37713;53.254;6.460;2023-04-25T14:48:27;5.43;;;1.30;;
51636;SDS011;37713;53.254;6.460;2023-04-25T14:50:54;6.88;;;1.25;;
51636;SDS011;37713;53.254;6.460;2023-04-25T14:53:21;5.50;;;1.10;;
51636;SDS011;37713;53.254;6.460;2023-04-25T14:55:47;10.48;;;1.48;;
51636;SDS011;37713;53.254;6.460;2023-04-25T14:58:14;10.23;;;1.13;;
51636;SDS011;37713;53.254;6.460;2023-04-25T15:00:40;10.15;;;1.70;;
51636;SDS011;37713;53.254;6.460;2023-04-25T15:03:06;7.97;;;1.45;;
51636;SDS011;37713;53.254;6.460;2023-04-25T15:05:33;10.15;;;1.85;;